createdAt,value
2023-02-06T00:00:50.624Z,1.60
2023-02-06T00:01:50.592Z,1.70
2023-02-06T00:02:50.558Z,2.20
2023-02-06T00:03:50.590Z,2.10
2023-02-06T00:04:50.586Z,1.50
2023-02-06T00:05:50.518Z,1.90
2023-02-06T00:06:50.532Z,3.60
2023-02-06T00:07:50.645Z,2.10
2023-02-06T00:08:50.457Z,2.10
2023-02-06T00:09:50.483Z,2.60
2023-02-06T00:10:50.721Z,2.00
2023-02-06T00:11:50.740Z,3.30
2023-02-06T00:12:50.759Z,1.70
2023-02-06T00:13:50.626Z,2.40
2023-02-06T00:14:50.406Z,2.60
2023-02-06T00:15:50.916Z,2.10
2023-02-06T00:16:50.380Z,2.60
2023-02-06T00:17:50.390Z,1.30
2023-02-06T00:18:50.367Z,1.70
2023-02-06T00:19:50.933Z,1.50
2023-02-06T00:20:50.422Z,2.10
2023-02-06T00:21:50.332Z,2.20
2023-02-06T00:22:50.860Z,2.00
2023-02-06T00:23:51.040Z,2.60
2023-02-06T00:24:50.301Z,1.50
2023-02-06T00:25:50.291Z,1.70
2023-02-06T00:26:51.110Z,2.70
2023-02-06T00:27:50.927Z,2.10
2023-02-06T00:28:50.344Z,3.40
2023-02-06T00:29:50.247Z,2.50
2023-02-06T00:30:50.252Z,3.00
2023-02-06T00:31:50.264Z,3.10
2023-02-06T00:32:50.252Z,1.70
2023-02-06T00:33:50.220Z,2.00
2023-02-06T00:34:50.173Z,2.30
2023-02-06T00:35:50.215Z,2.00
2023-02-06T00:36:50.210Z,1.60
2023-02-06T00:37:50.156Z,2.30
2023-02-06T00:38:50.156Z,1.70
2023-02-06T00:39:50.223Z,1.80
2023-02-06T00:40:50.124Z,3.40
2023-02-06T00:41:50.149Z,3.90
2023-02-06T00:42:50.086Z,1.90
2023-02-06T00:43:50.226Z,1.90
2023-02-06T00:44:50.216Z,2.50
2023-02-06T00:45:50.070Z,2.20
2023-02-06T00:46:50.044Z,1.80
2023-02-06T00:47:50.308Z,2.70
2023-02-06T00:48:50.013Z,2.60
2023-02-06T00:49:50.227Z,2.20
2023-02-06T00:50:50.002Z,2.30
2023-02-06T00:51:50.029Z,1.70
2023-02-06T00:52:50.046Z,2.00
2023-02-06T00:53:51.207Z,3.00
2023-02-06T00:54:49.955Z,2.00
2023-02-06T00:55:50.183Z,3.50
2023-02-06T00:56:49.947Z,2.00
2023-02-06T00:57:49.936Z,2.10
2023-02-06T00:58:49.906Z,1.90
2023-02-06T00:59:49.980Z,1.60
2023-02-06T01:00:49.988Z,2.30
2023-02-06T01:01:49.971Z,1.60
2023-02-06T01:02:49.906Z,1.40
2023-02-06T01:03:50.064Z,1.70
2023-02-06T01:04:49.847Z,2.20
2023-02-06T01:05:49.885Z,2.00
2023-02-06T01:06:50.131Z,3.90
2023-02-06T01:07:50.165Z,1.70
2023-02-06T01:08:49.982Z,3.70
2023-02-06T01:09:49.803Z,1.60
2023-02-06T01:10:49.781Z,1.90
2023-02-06T01:11:49.829Z,1.80
2023-02-06T01:12:49.764Z,1.20
2023-02-06T01:13:49.798Z,1.30
2023-02-06T01:14:49.785Z,2.50
2023-02-06T01:15:51.234Z,1.80
2023-02-06T01:16:50.235Z,1.40
2023-02-06T01:17:49.734Z,1.30
2023-02-06T01:18:50.233Z,1.90
2023-02-06T01:19:50.243Z,2.70
2023-02-06T01:20:49.684Z,1.70
2023-02-06T01:21:49.666Z,1.70
2023-02-06T01:22:49.640Z,1.70
2023-02-06T01:23:50.240Z,1.50
2023-02-06T01:24:50.250Z,1.20
2023-02-06T01:25:49.607Z,1.90
2023-02-06T01:26:49.588Z,1.30
2023-02-06T01:27:50.368Z,1.30
2023-02-06T01:28:49.576Z,1.30
2023-02-06T01:29:49.564Z,1.20
2023-02-06T01:30:49.602Z,1.50
2023-02-06T01:31:50.139Z,1.20
2023-02-06T01:32:50.248Z,1.30
2023-02-06T01:33:49.556Z,1.20
2023-02-06T01:34:49.498Z,1.30
2023-02-06T01:35:50.249Z,1.40
2023-02-06T01:36:49.495Z,1.50
2023-02-06T01:37:49.471Z,1.80
2023-02-06T01:38:49.453Z,1.30
2023-02-06T01:39:49.479Z,1.90
2023-02-06T01:40:49.456Z,1.50
2023-02-06T01:41:49.423Z,2.10
2023-02-06T01:42:49.514Z,1.30
2023-02-06T01:43:49.541Z,1.40
2023-02-06T01:44:49.378Z,0.90
2023-02-06T01:45:49.390Z,1.50
2023-02-06T01:46:49.719Z,1.20
2023-02-06T01:47:49.600Z,1.40
2023-02-06T01:48:49.583Z,1.20
2023-02-06T01:49:49.322Z,1.40
2023-02-06T01:50:49.419Z,2.50
2023-02-06T01:51:49.306Z,1.20
2023-02-06T01:52:49.303Z,2.10
2023-02-06T01:53:49.279Z,1.40
2023-02-06T01:54:49.369Z,1.70
2023-02-06T01:55:49.272Z,1.60
2023-02-06T01:56:49.270Z,2.00
2023-02-06T01:57:49.230Z,1.30
2023-02-06T01:58:49.237Z,1.50
2023-02-06T01:59:49.274Z,1.20
2023-02-06T02:00:49.246Z,1.50
2023-02-06T02:01:49.279Z,1.40
2023-02-06T02:02:49.176Z,1.40
2023-02-06T02:03:49.272Z,1.30
2023-02-06T02:04:49.272Z,1.00
2023-02-06T02:05:49.145Z,1.30
2023-02-06T02:06:49.163Z,1.50
2023-02-06T02:07:49.174Z,2.00
2023-02-06T02:08:49.130Z,1.40
2023-02-06T02:09:49.099Z,1.20
2023-02-06T02:10:49.782Z,1.20
2023-02-06T02:11:49.281Z,1.50
2023-02-06T02:12:49.081Z,1.30
2023-02-06T02:13:49.052Z,1.60
2023-02-06T02:14:49.074Z,1.60
2023-02-06T02:15:49.273Z,1.70
2023-02-06T02:16:49.025Z,2.20
2023-02-06T02:17:49.008Z,2.40
2023-02-06T02:18:49.004Z,2.30
2023-02-06T02:19:49.285Z,1.60
2023-02-06T02:20:49.304Z,2.40
2023-02-06T02:21:48.956Z,2.20
2023-02-06T02:22:49.296Z,2.20
2023-02-06T02:23:48.934Z,1.60
2023-02-06T02:24:49.102Z,2.50
2023-02-06T02:25:48.927Z,2.80
2023-02-06T02:26:48.924Z,2.60
2023-02-06T02:27:48.962Z,2.60
2023-02-06T02:28:48.985Z,2.00
2023-02-06T02:29:48.869Z,1.80
2023-02-06T02:30:48.893Z,2.10
2023-02-06T02:31:49.045Z,2.10
2023-02-06T02:32:49.037Z,4.00
2023-02-06T02:33:48.819Z,2.60
2023-02-06T02:34:48.943Z,2.00
2023-02-06T02:35:49.057Z,2.60
2023-02-06T02:36:49.233Z,1.80
2023-02-06T02:37:48.800Z,3.10
2023-02-06T02:38:48.787Z,1.60
2023-02-06T02:39:48.750Z,1.60
2023-02-06T02:40:48.759Z,1.40
2023-02-06T02:41:49.310Z,1.80
2023-02-06T02:42:48.736Z,4.40
2023-02-06T02:43:48.958Z,2.80
2023-02-06T02:44:49.310Z,2.00
2023-02-06T02:45:48.713Z,2.60
2023-02-06T02:46:48.712Z,3.20
2023-02-06T02:47:48.726Z,2.70
2023-02-06T02:48:48.667Z,3.00
2023-02-06T02:49:48.645Z,2.20
2023-02-06T02:50:48.659Z,2.50
2023-02-06T02:51:48.834Z,2.50
2023-02-06T02:52:48.865Z,3.10
2023-02-06T02:53:48.586Z,2.80
2023-02-06T02:54:48.592Z,2.60
2023-02-06T02:55:48.585Z,1.50
2023-02-06T02:56:48.565Z,3.60
2023-02-06T02:57:48.541Z,2.10
2023-02-06T02:58:48.535Z,2.30
2023-02-06T02:59:48.544Z,3.10
2023-02-06T03:00:49.101Z,3.50
2023-02-06T03:01:48.652Z,2.10
2023-02-06T03:02:48.648Z,2.40
2023-02-06T03:03:48.496Z,2.50
2023-02-06T03:04:48.484Z,1.80
2023-02-06T03:05:48.445Z,2.90
2023-02-06T03:06:48.464Z,2.70
2023-02-06T03:07:49.186Z,2.40
2023-02-06T03:08:48.788Z,2.10
2023-02-06T03:09:48.397Z,3.00
2023-02-06T03:10:49.142Z,1.50
2023-02-06T03:11:48.624Z,2.00
2023-02-06T03:12:48.383Z,2.20
2023-02-06T03:13:48.351Z,3.10
2023-02-06T03:14:48.361Z,2.20
2023-02-06T03:15:48.335Z,2.60
2023-02-06T03:16:48.349Z,2.50
2023-02-06T03:17:48.325Z,2.10
2023-02-06T03:18:48.311Z,2.20
2023-02-06T03:19:48.283Z,2.50
2023-02-06T03:20:48.281Z,2.30
2023-02-06T03:21:48.265Z,2.90
2023-02-06T03:22:48.334Z,1.90
2023-02-06T03:23:48.324Z,1.80
2023-02-06T03:24:48.240Z,2.50
2023-02-06T03:25:48.219Z,2.00
2023-02-06T03:26:48.223Z,2.60
2023-02-06T03:27:48.237Z,1.80
2023-02-06T03:28:48.292Z,2.80
2023-02-06T03:29:48.178Z,2.90
2023-02-06T03:30:48.368Z,2.50
2023-02-06T03:31:48.399Z,2.20
2023-02-06T03:32:48.173Z,2.30
2023-02-06T03:33:48.143Z,1.90
2023-02-06T03:34:48.137Z,3.20
2023-02-06T03:35:48.103Z,3.00
2023-02-06T03:36:48.113Z,2.30
2023-02-06T03:37:48.089Z,2.60
2023-02-06T03:38:48.283Z,2.70
2023-02-06T03:39:48.077Z,3.10
2023-02-06T03:40:48.064Z,2.30
2023-02-06T03:41:48.054Z,3.70
2023-02-06T03:42:48.131Z,2.40
2023-02-06T03:43:48.015Z,3.10
2023-02-06T03:44:48.039Z,3.70
2023-02-06T03:45:48.015Z,4.60
2023-02-06T03:46:48.008Z,3.70
2023-02-06T03:47:48.258Z,3.10
2023-02-06T03:48:47.973Z,3.90
2023-02-06T03:49:47.967Z,3.10
2023-02-06T03:50:48.337Z,3.70
2023-02-06T03:51:48.215Z,4.30
2023-02-06T03:52:47.937Z,3.20
2023-02-06T03:53:47.910Z,3.80
2023-02-06T03:54:47.924Z,4.40
2023-02-06T03:55:48.355Z,4.30
2023-02-06T03:56:47.891Z,3.80
2023-02-06T03:57:47.865Z,2.80
2023-02-06T03:58:48.360Z,2.40
2023-02-06T03:59:47.846Z,2.70
2023-02-06T04:00:47.881Z,3.10
2023-02-06T04:01:47.830Z,4.10
2023-02-06T04:02:47.837Z,4.60
2023-02-06T04:03:47.863Z,4.30
2023-02-06T04:04:47.808Z,4.00
2023-02-06T04:05:47.784Z,3.90
2023-02-06T04:06:47.796Z,3.60
2023-02-06T04:07:47.761Z,3.40
2023-02-06T04:08:47.761Z,4.30
2023-02-06T04:09:47.733Z,3.50
2023-02-06T04:10:48.072Z,4.20
2023-02-06T04:11:48.097Z,3.50
2023-02-06T04:12:48.136Z,4.10
2023-02-06T04:13:47.691Z,4.50
2023-02-06T04:14:47.689Z,5.90
2023-02-06T04:15:47.686Z,5.10
2023-02-06T04:16:47.710Z,4.40
2023-02-06T04:17:59.450Z,3.60
2023-02-06T04:18:48.950Z,4.00
2023-02-06T04:19:48.341Z,4.40
2023-02-06T04:20:47.645Z,3.60
2023-02-06T04:21:47.604Z,4.90
2023-02-06T04:22:47.608Z,4.60
2023-02-06T04:23:47.572Z,4.00
2023-02-06T04:24:47.581Z,4.80
2023-02-06T04:25:47.567Z,3.90
2023-02-06T04:26:48.378Z,5.00
2023-02-06T04:27:47.598Z,4.50
2023-02-06T04:28:47.566Z,3.50
2023-02-06T04:29:48.383Z,4.50
2023-02-06T04:30:48.019Z,7.00
2023-02-06T04:31:47.499Z,4.80
2023-02-06T04:32:47.831Z,5.80
2023-02-06T04:33:47.470Z,4.70
2023-02-06T04:34:47.477Z,4.20
2023-02-06T04:35:47.498Z,5.10
2023-02-06T04:36:47.453Z,3.30
2023-02-06T04:37:47.438Z,4.00
2023-02-06T04:38:47.429Z,5.40
2023-02-06T04:39:47.394Z,4.50
2023-02-06T04:40:47.407Z,5.00
2023-02-06T04:41:47.370Z,4.50
2023-02-06T04:42:47.397Z,5.70
2023-02-06T04:43:47.390Z,4.20
2023-02-06T04:44:47.367Z,4.70
2023-02-06T04:45:47.333Z,8.40
2023-02-06T04:46:47.400Z,5.80
2023-02-06T04:47:47.332Z,5.60
2023-02-06T04:48:47.311Z,5.80
2023-02-06T04:49:47.276Z,4.90
2023-02-06T04:50:47.297Z,7.70
2023-02-06T04:51:47.307Z,11.40
2023-02-06T04:52:47.342Z,7.50
2023-02-06T04:53:47.253Z,10.90
2023-02-06T04:54:47.242Z,11.30
2023-02-06T04:55:47.270Z,9.90
2023-02-06T04:56:47.217Z,6.90
2023-02-06T04:57:47.226Z,8.20
2023-02-06T04:58:47.409Z,8.20
2023-02-06T04:59:47.410Z,8.10
2023-02-06T05:00:47.198Z,5.80
2023-02-06T05:01:47.186Z,11.50
2023-02-06T05:02:47.183Z,6.90
2023-02-06T05:03:47.125Z,7.30
2023-02-06T05:04:47.127Z,6.30
2023-02-06T05:05:47.105Z,8.30
2023-02-06T05:06:47.105Z,8.00
2023-02-06T05:07:47.402Z,7.60
2023-02-06T05:08:47.084Z,6.20
2023-02-06T05:09:47.057Z,8.10
2023-02-06T05:10:47.065Z,5.20
2023-02-06T05:11:47.029Z,4.40
2023-02-06T05:12:47.045Z,6.20
2023-02-06T05:13:47.023Z,4.60
2023-02-06T05:14:47.017Z,7.90
2023-02-06T05:15:47.014Z,5.60
2023-02-06T05:16:46.996Z,6.00
2023-02-06T05:17:46.961Z,5.50
2023-02-06T05:18:46.975Z,6.40
2023-02-06T05:19:46.950Z,5.50
2023-02-06T05:20:46.946Z,5.90
2023-02-06T05:21:46.916Z,6.30
2023-02-06T05:22:47.413Z,5.90
2023-02-06T05:23:47.403Z,7.50
2023-02-06T05:24:46.916Z,6.20
2023-02-06T05:25:46.869Z,5.70
2023-02-06T05:26:47.424Z,5.40
2023-02-06T05:27:46.870Z,6.20
2023-02-06T05:28:46.850Z,5.50
2023-02-06T05:29:46.840Z,5.70
2023-02-06T05:30:46.878Z,7.80
2023-02-06T05:31:46.909Z,5.80
2023-02-06T05:32:46.801Z,6.20
2023-02-06T05:33:46.779Z,6.00
2023-02-06T05:34:46.799Z,9.30
2023-02-06T05:35:46.755Z,7.30
2023-02-06T05:36:46.769Z,6.40
2023-02-06T05:37:46.741Z,6.90
2023-02-06T05:38:46.760Z,10.00
2023-02-06T05:39:46.943Z,6.70
2023-02-06T05:40:46.716Z,8.30
2023-02-06T05:41:46.683Z,8.40
2023-02-06T05:42:46.694Z,7.00
2023-02-06T05:43:46.662Z,6.80
2023-02-06T05:44:46.688Z,6.10
2023-02-06T05:45:46.664Z,5.80
2023-02-06T05:46:46.662Z,5.90
2023-02-06T05:47:47.233Z,5.70
2023-02-06T05:48:46.633Z,5.30
2023-02-06T05:49:46.604Z,6.90
2023-02-06T05:50:47.334Z,6.20
2023-02-06T05:51:46.599Z,5.90
2023-02-06T05:52:46.590Z,5.60
2023-02-06T05:53:46.555Z,7.10
2023-02-06T05:54:47.446Z,6.10
2023-02-06T05:55:47.400Z,7.00
2023-02-06T05:56:46.542Z,8.10
2023-02-06T05:57:46.534Z,6.20
2023-02-06T05:58:47.447Z,5.60
2023-02-06T05:59:46.494Z,7.20
2023-02-06T06:00:46.495Z,5.50
2023-02-06T06:01:46.489Z,5.70
2023-02-06T06:02:46.486Z,7.60
2023-02-06T06:03:46.533Z,6.40
2023-02-06T06:04:46.448Z,9.00
2023-02-06T06:05:46.445Z,6.30
2023-02-06T06:06:46.440Z,5.60
2023-02-06T06:07:46.424Z,6.40
2023-02-06T06:08:46.398Z,5.30
2023-02-06T06:09:46.412Z,7.60
2023-02-06T06:10:46.448Z,5.30
2023-02-06T06:11:46.381Z,5.50
2023-02-06T06:12:46.361Z,6.40
2023-02-06T06:13:46.359Z,7.00
2023-02-06T06:14:47.105Z,6.30
2023-02-06T06:15:46.364Z,7.10
2023-02-06T06:16:46.315Z,8.90
2023-02-06T06:17:46.304Z,7.20
2023-02-06T06:18:46.302Z,8.20
2023-02-06T06:19:46.362Z,8.60
2023-02-06T06:20:46.276Z,8.10
2023-02-06T06:21:46.278Z,8.00
2023-02-06T06:22:46.467Z,7.80
2023-02-06T06:23:46.238Z,8.50
2023-02-06T06:24:46.244Z,7.80
2023-02-06T06:25:46.230Z,8.90
2023-02-06T06:26:46.295Z,11.80
2023-02-06T06:27:46.238Z,9.50
2023-02-06T06:28:46.184Z,9.30
2023-02-06T06:29:46.188Z,11.00
2023-02-06T06:30:46.505Z,8.50
2023-02-06T06:31:46.195Z,8.80
2023-02-06T06:32:46.130Z,8.60
2023-02-06T06:33:46.134Z,10.40
2023-02-06T06:34:46.467Z,7.60
2023-02-06T06:35:46.108Z,8.60
2023-02-06T06:36:46.076Z,7.60
2023-02-06T06:37:46.078Z,7.50
2023-02-06T06:38:46.597Z,10.00
2023-02-06T06:39:46.067Z,10.40
2023-02-06T06:40:46.054Z,9.30
2023-02-06T06:41:46.046Z,9.50
2023-02-06T06:42:46.463Z,7.70
2023-02-06T06:43:46.010Z,7.70
2023-02-06T06:44:45.985Z,8.70
2023-02-06T06:45:46.071Z,7.50
2023-02-06T06:46:46.861Z,7.90
2023-02-06T06:47:45.970Z,8.10
2023-02-06T06:48:45.940Z,7.00
2023-02-06T06:49:45.951Z,8.80
2023-02-06T06:50:46.479Z,10.10
2023-02-06T06:51:46.485Z,9.70
2023-02-06T06:52:45.906Z,10.20
2023-02-06T06:53:46.948Z,7.20
2023-02-06T06:54:46.849Z,9.00
2023-02-06T06:55:45.895Z,9.20
2023-02-06T06:56:45.903Z,6.40
2023-02-06T06:57:45.857Z,9.50
2023-02-06T06:58:46.484Z,7.50
2023-02-06T06:59:45.870Z,7.20
2023-02-06T07:00:45.853Z,7.70
2023-02-06T07:01:45.807Z,6.20
2023-02-06T07:02:45.932Z,5.60
2023-02-06T07:03:45.787Z,6.60
2023-02-06T07:04:45.760Z,8.80
2023-02-06T07:05:45.767Z,6.90
2023-02-06T07:06:46.010Z,6.50
2023-02-06T07:07:46.059Z,7.90
2023-02-06T07:08:45.720Z,7.00
2023-02-06T07:09:45.722Z,6.70
2023-02-06T07:10:46.166Z,6.30
2023-02-06T07:11:45.789Z,7.00
2023-02-06T07:12:45.688Z,7.00
2023-02-06T07:13:45.675Z,8.20
2023-02-06T07:14:46.310Z,7.50
2023-02-06T07:15:45.688Z,8.30
2023-02-06T07:16:45.733Z,6.50
2023-02-06T07:17:45.648Z,8.20
2023-02-06T07:18:45.614Z,6.80
2023-02-06T07:19:45.607Z,7.80
2023-02-06T07:20:45.583Z,8.10
2023-02-06T07:21:47.024Z,6.70
2023-02-06T07:22:45.736Z,8.40
2023-02-06T07:23:45.685Z,7.00
2023-02-06T07:24:45.557Z,7.70
2023-02-06T07:25:45.539Z,7.30
2023-02-06T07:26:45.514Z,7.10
2023-02-06T07:27:45.566Z,7.30
2023-02-06T07:28:45.493Z,9.70
2023-02-06T07:29:45.537Z,6.30
2023-02-06T07:30:45.518Z,7.70
2023-02-06T07:31:45.546Z,7.50
2023-02-06T07:32:45.445Z,8.50
2023-02-06T07:33:45.454Z,8.30
2023-02-06T07:34:45.442Z,7.20
2023-02-06T07:35:45.418Z,8.20
2023-02-06T07:36:45.390Z,6.70
2023-02-06T07:37:45.397Z,8.10
2023-02-06T07:38:45.377Z,7.10
2023-02-06T07:39:45.391Z,9.00
2023-02-06T07:40:46.079Z,6.70
2023-02-06T07:41:45.527Z,6.70
2023-02-06T07:42:45.336Z,8.00
2023-02-06T07:43:45.352Z,8.30
2023-02-06T07:44:45.315Z,8.60
2023-02-06T07:45:45.361Z,8.30
2023-02-06T07:46:45.438Z,7.40
2023-02-06T07:47:45.491Z,7.10
2023-02-06T07:48:45.262Z,7.10
2023-02-06T07:49:45.281Z,8.10
2023-02-06T07:50:45.232Z,9.10
2023-02-06T07:51:45.246Z,8.00
2023-02-06T07:52:45.225Z,8.60
2023-02-06T07:53:45.220Z,11.50
2023-02-06T07:54:45.226Z,6.70
2023-02-06T07:55:45.186Z,6.60
2023-02-06T07:56:45.172Z,7.60
2023-02-06T07:57:45.194Z,7.50
2023-02-06T07:58:45.155Z,8.40
2023-02-06T07:59:45.165Z,8.50
2023-02-06T08:00:45.972Z,8.20
2023-02-06T08:01:45.130Z,7.10
2023-02-06T08:02:45.107Z,9.10
2023-02-06T08:03:45.104Z,9.30
2023-02-06T08:04:45.185Z,9.30
2023-02-06T08:05:45.081Z,7.90
2023-02-06T08:06:45.060Z,9.00
2023-02-06T08:07:45.075Z,6.70
2023-02-06T08:08:45.035Z,8.30
2023-02-06T08:09:45.034Z,6.50
2023-02-06T08:10:45.635Z,11.10
2023-02-06T08:11:45.305Z,8.40
2023-02-06T08:12:44.991Z,7.80
2023-02-06T08:13:45.023Z,9.20
2023-02-06T08:14:44.970Z,8.90
2023-02-06T08:15:44.970Z,7.80
2023-02-06T08:16:45.017Z,7.50
2023-02-06T08:17:44.944Z,10.30
2023-02-06T08:18:45.141Z,8.00
2023-02-06T08:19:44.929Z,7.80
2023-02-06T08:20:44.893Z,8.70
2023-02-06T08:21:45.051Z,8.40
2023-02-06T08:22:45.231Z,8.10
2023-02-06T08:23:44.924Z,7.40
2023-02-06T08:24:44.860Z,6.90
2023-02-06T08:25:44.850Z,7.50
2023-02-06T08:26:44.935Z,10.30
2023-02-06T08:27:44.882Z,8.50
2023-02-06T08:28:44.820Z,7.00
2023-02-06T08:29:45.037Z,11.40
2023-02-06T08:30:44.855Z,7.70
2023-02-06T08:31:44.856Z,10.60
2023-02-06T08:32:44.783Z,8.10
2023-02-06T08:33:44.766Z,8.30
2023-02-06T08:34:45.223Z,8.90
2023-02-06T08:35:45.259Z,7.20
2023-02-06T08:36:44.728Z,6.80
2023-02-06T08:37:45.345Z,11.70
2023-02-06T08:38:45.374Z,7.50
2023-02-06T08:39:44.698Z,6.80
2023-02-06T08:40:44.684Z,7.40
2023-02-06T08:41:44.885Z,9.40
2023-02-06T08:42:45.525Z,9.20
2023-02-06T08:43:44.658Z,8.60
2023-02-06T08:44:44.660Z,6.80
2023-02-06T08:45:45.429Z,8.20
2023-02-06T08:46:45.092Z,8.50
2023-02-06T08:47:44.615Z,7.30
2023-02-06T08:48:44.606Z,6.50
2023-02-06T08:49:44.806Z,9.70
2023-02-06T08:50:44.615Z,7.20
2023-02-06T08:51:44.570Z,7.10
2023-02-06T08:52:44.538Z,7.20
2023-02-06T08:53:44.545Z,7.50
2023-02-06T08:54:44.540Z,7.60
2023-02-06T08:55:44.526Z,8.50
2023-02-06T08:56:44.497Z,11.30
2023-02-06T08:57:44.522Z,6.90
2023-02-06T08:58:44.569Z,8.30
2023-02-06T08:59:44.576Z,7.80
2023-02-06T09:00:44.457Z,6.80
2023-02-06T09:01:44.482Z,7.00
2023-02-06T09:02:44.475Z,6.40
2023-02-06T09:03:44.438Z,6.20
2023-02-06T09:04:44.425Z,7.20
2023-02-06T09:05:44.423Z,7.10
2023-02-06T09:06:44.385Z,7.70
2023-02-06T09:07:44.384Z,6.10
2023-02-06T09:08:44.353Z,8.40
2023-02-06T09:09:44.408Z,7.90
2023-02-06T09:10:44.335Z,6.80
2023-02-06T09:11:44.367Z,6.10
2023-02-06T09:12:44.349Z,6.70
2023-02-06T09:13:44.579Z,6.30
2023-02-06T09:14:44.574Z,6.60
2023-02-06T09:15:44.341Z,7.20
2023-02-06T09:16:44.267Z,7.70
2023-02-06T09:17:44.271Z,7.00
2023-02-06T09:18:44.242Z,6.90
2023-02-06T09:19:44.260Z,6.10
2023-02-06T09:20:44.221Z,6.80
2023-02-06T09:21:44.757Z,7.30
2023-02-06T09:22:44.705Z,5.80
2023-02-06T09:23:44.203Z,6.60
2023-02-06T09:24:44.175Z,7.50
2023-02-06T09:25:44.183Z,7.30
2023-02-06T09:26:58.491Z,7.30
2023-02-06T09:27:45.168Z,7.60
2023-02-06T09:28:44.137Z,6.50
2023-02-06T09:29:44.961Z,7.50
2023-02-06T09:30:44.615Z,7.10
2023-02-06T09:31:44.182Z,9.70
2023-02-06T09:32:44.090Z,6.50
2023-02-06T09:33:44.086Z,7.30
2023-02-06T09:34:44.073Z,7.10
2023-02-06T09:35:44.059Z,8.80
2023-02-06T09:36:44.050Z,7.10
2023-02-06T09:37:44.033Z,7.70
2023-02-06T09:38:44.590Z,6.20
2023-02-06T09:39:44.022Z,5.20
2023-02-06T09:40:43.983Z,5.90
2023-02-06T09:41:43.995Z,6.60
2023-02-06T09:42:44.592Z,6.30
2023-02-06T09:43:43.958Z,6.80
2023-02-06T09:44:43.937Z,5.40
2023-02-06T09:45:44.054Z,6.30
2023-02-06T09:46:45.348Z,7.50
2023-02-06T09:47:45.202Z,6.50
2023-02-06T09:48:43.898Z,6.20
2023-02-06T09:49:43.980Z,5.00
2023-02-06T09:50:43.863Z,6.10
2023-02-06T09:51:43.869Z,4.90
2023-02-06T09:52:43.842Z,5.50
2023-02-06T09:53:43.856Z,5.80
2023-02-06T09:54:43.838Z,7.20
2023-02-06T09:55:43.820Z,5.60
2023-02-06T09:56:43.799Z,6.20
2023-02-06T09:57:44.282Z,6.10
2023-02-06T09:58:43.789Z,5.40
2023-02-06T09:59:43.821Z,4.60
2023-02-06T10:00:43.745Z,5.00
2023-02-06T10:01:43.829Z,4.30
2023-02-06T10:02:43.789Z,4.00
2023-02-06T10:03:43.803Z,3.50
2023-02-06T10:04:43.712Z,3.80
2023-02-06T10:05:43.726Z,5.60
2023-02-06T10:06:43.667Z,4.10
2023-02-06T10:07:43.704Z,4.00
2023-02-06T10:08:43.678Z,3.70
2023-02-06T10:09:43.699Z,3.50
2023-02-06T10:10:43.986Z,4.40
2023-02-06T10:11:43.667Z,5.60
2023-02-06T10:12:43.621Z,5.00
2023-02-06T10:13:43.615Z,4.70
2023-02-06T10:14:43.603Z,3.40
2023-02-06T10:15:43.618Z,4.90
2023-02-06T10:16:43.618Z,4.50
2023-02-06T10:17:43.642Z,4.90
2023-02-06T10:18:43.620Z,4.30
2023-02-06T10:19:43.536Z,4.30
2023-02-06T10:20:43.555Z,4.10
2023-02-06T10:21:43.541Z,4.10
2023-02-06T10:22:43.519Z,4.40
2023-02-06T10:23:43.489Z,4.70
2023-02-06T10:24:43.495Z,5.50
2023-02-06T10:25:43.635Z,7.00
2023-02-06T10:26:43.636Z,3.60
2023-02-06T10:27:43.878Z,4.10
2023-02-06T10:28:43.457Z,5.30
2023-02-06T10:29:43.426Z,4.10
2023-02-06T10:30:43.462Z,4.00
2023-02-06T10:31:43.443Z,4.90
2023-02-06T10:32:43.424Z,4.50
2023-02-06T10:33:43.613Z,4.40
2023-02-06T10:34:43.390Z,5.30
2023-02-06T10:35:43.552Z,4.60
2023-02-06T10:36:45.819Z,6.00
2023-02-06T10:37:43.637Z,5.20
2023-02-06T10:38:43.378Z,5.20
2023-02-06T10:39:43.314Z,4.20
2023-02-06T10:40:43.361Z,4.50
2023-02-06T10:41:43.645Z,5.20
2023-02-06T10:42:43.652Z,5.30
2023-02-06T10:43:43.681Z,5.70
2023-02-06T10:44:51.065Z,5.80
2023-02-06T10:45:44.646Z,4.40
2023-02-06T10:46:43.268Z,4.70
2023-02-06T10:47:43.270Z,3.90
2023-02-06T10:48:43.224Z,5.20
2023-02-06T10:49:43.648Z,5.00
2023-02-06T10:50:43.496Z,5.20
2023-02-06T10:51:43.617Z,5.10
2023-02-06T10:52:43.180Z,5.50
2023-02-06T10:53:43.164Z,4.00
2023-02-06T10:54:43.193Z,4.60
2023-02-06T10:55:44.454Z,5.10
2023-02-06T10:56:43.157Z,4.60
2023-02-06T10:57:43.197Z,6.20
2023-02-06T10:58:43.120Z,5.60
2023-02-06T10:59:43.089Z,4.50
2023-02-06T11:00:43.132Z,5.00
2023-02-06T11:01:43.344Z,4.30
2023-02-06T11:02:43.066Z,5.30
2023-02-06T11:03:43.047Z,4.80
2023-02-06T11:04:43.085Z,5.30
2023-02-06T11:05:43.408Z,4.30
2023-02-06T11:06:43.440Z,4.50
2023-02-06T11:07:43.004Z,4.40
2023-02-06T11:08:43.483Z,6.10
2023-02-06T11:09:43.502Z,4.60
2023-02-06T11:10:42.980Z,5.80
2023-02-06T11:11:42.961Z,5.40
2023-02-06T11:12:42.981Z,5.20
2023-02-06T11:13:42.933Z,4.70
2023-02-06T11:14:43.140Z,5.90
2023-02-06T11:15:42.923Z,5.30
2023-02-06T11:16:42.954Z,4.90
2023-02-06T11:17:43.242Z,4.70
2023-02-06T11:18:42.907Z,5.00
2023-02-06T11:19:42.869Z,3.90
2023-02-06T11:20:43.351Z,5.30
2023-02-06T11:21:43.387Z,3.40
2023-02-06T11:22:52.305Z,5.10
2023-02-06T11:23:43.878Z,4.80
2023-02-06T11:24:42.832Z,4.70
2023-02-06T11:25:43.324Z,4.30
2023-02-06T11:26:42.811Z,5.00
2023-02-06T11:27:44.311Z,4.50
2023-02-06T11:28:43.067Z,4.30
2023-02-06T11:29:43.714Z,5.20
2023-02-06T11:30:43.719Z,5.00
2023-02-06T11:31:43.702Z,4.40
2023-02-06T11:32:46.433Z,4.80
2023-02-06T11:33:43.707Z,4.10
2023-02-06T11:34:43.523Z,5.50
2023-02-06T11:35:42.686Z,5.10
2023-02-06T11:36:42.698Z,4.40
2023-02-06T11:37:42.696Z,5.80
2023-02-06T11:38:42.672Z,5.10
2023-02-06T11:39:42.645Z,5.10
2023-02-06T11:40:42.664Z,5.70
2023-02-06T11:41:42.683Z,5.90
2023-02-06T11:42:42.629Z,4.20
2023-02-06T11:43:42.610Z,5.90
2023-02-06T11:44:42.698Z,4.90
2023-02-06T11:45:42.739Z,5.20
2023-02-06T11:46:42.692Z,5.80
2023-02-06T11:47:42.687Z,4.90
2023-02-06T11:48:42.560Z,7.40
2023-02-06T11:49:42.714Z,4.80
2023-02-06T11:50:42.539Z,4.20
2023-02-06T11:51:42.497Z,4.80
2023-02-06T11:52:42.509Z,5.60
2023-02-06T11:53:42.556Z,5.20
2023-02-06T11:54:42.606Z,4.30
2023-02-06T11:55:42.472Z,4.70
2023-02-06T11:56:42.464Z,5.30
2023-02-06T11:57:42.446Z,5.90
2023-02-06T11:58:42.435Z,4.40
2023-02-06T11:59:42.417Z,3.70
2023-02-06T12:00:42.432Z,4.40
2023-02-06T12:01:42.400Z,3.80
2023-02-06T12:02:42.763Z,5.00
2023-02-06T12:03:42.396Z,3.90
2023-02-06T12:04:42.379Z,4.40
2023-02-06T12:05:42.367Z,4.80
2023-02-06T12:06:42.366Z,5.50
2023-02-06T12:07:42.329Z,9.50
2023-02-06T12:08:42.347Z,7.80
2023-02-06T12:09:42.704Z,6.00
2023-02-06T12:10:42.309Z,5.60
2023-02-06T12:11:42.297Z,5.00
2023-02-06T12:12:42.285Z,6.00
2023-02-06T12:13:42.264Z,5.40
2023-02-06T12:14:42.264Z,9.20
2023-02-06T12:15:46.953Z,5.40
2023-02-06T12:16:43.477Z,4.00
2023-02-06T12:17:42.513Z,4.10
2023-02-06T12:18:42.528Z,5.90
2023-02-06T12:19:42.191Z,5.60
2023-02-06T12:20:42.189Z,6.30
2023-02-06T12:21:42.205Z,4.30
2023-02-06T12:22:42.188Z,5.20
2023-02-06T12:23:42.150Z,4.50
2023-02-06T12:24:42.168Z,5.70
2023-02-06T12:25:42.720Z,6.40
2023-02-06T12:26:42.190Z,7.80
2023-02-06T12:27:42.118Z,7.90
2023-02-06T12:28:42.110Z,4.80
2023-02-06T12:29:42.078Z,6.40
2023-02-06T12:30:42.162Z,6.30
2023-02-06T12:31:42.209Z,5.50
2023-02-06T12:32:42.729Z,4.20
2023-02-06T12:33:42.045Z,5.90
2023-02-06T12:34:42.043Z,5.60
2023-02-06T12:35:42.008Z,4.60
2023-02-06T12:36:42.016Z,5.40
2023-02-06T12:37:42.004Z,5.90
2023-02-06T12:38:42.010Z,5.80
2023-02-06T12:39:41.977Z,7.20
2023-02-06T12:40:41.981Z,6.40
2023-02-06T12:41:41.968Z,6.10
2023-02-06T12:42:42.360Z,6.30
2023-02-06T12:43:41.942Z,6.30
2023-02-06T12:44:41.928Z,8.00
2023-02-06T12:45:41.900Z,7.90
2023-02-06T12:46:41.910Z,6.50
2023-02-06T12:47:41.903Z,6.10
2023-02-06T12:48:41.898Z,5.30
2023-02-06T12:49:42.037Z,7.10
2023-02-06T12:50:41.860Z,6.30
2023-02-06T12:51:41.822Z,7.20
2023-02-06T12:52:41.837Z,5.90
2023-02-06T12:53:41.808Z,6.20
2023-02-06T12:54:41.818Z,5.20
2023-02-06T12:55:41.779Z,5.70
2023-02-06T12:56:41.789Z,5.00
2023-02-06T12:57:42.232Z,4.90
2023-02-06T12:58:41.781Z,4.70
2023-02-06T12:59:55.635Z,7.10
2023-02-06T13:00:42.743Z,5.30
2023-02-06T13:01:41.740Z,5.90
2023-02-06T13:02:41.786Z,6.70
2023-02-06T13:03:41.685Z,6.50
2023-02-06T13:04:41.692Z,6.80
2023-02-06T13:05:41.699Z,6.50
2023-02-06T13:06:41.676Z,4.60
2023-02-06T13:07:49.384Z,5.90
2023-02-06T13:08:42.671Z,7.00
2023-02-06T13:09:41.931Z,6.00
2023-02-06T13:10:41.626Z,9.90
2023-02-06T13:11:41.622Z,5.80
2023-02-06T13:12:41.612Z,4.70
2023-02-06T13:13:41.757Z,4.90
2023-02-06T13:14:41.595Z,6.30
2023-02-06T13:15:41.608Z,6.30
2023-02-06T13:16:41.571Z,7.00
2023-02-06T13:17:41.548Z,7.30